sensor_id;sensor_type;location;lat;lon;timestamp;P1;durP1;ratioP1;P2;durP2;ratioP2
37529;SDS011;23374;52.758;6.872;2023-11-18T00:01:22;56.93;;;9.87;;
37529;SDS011;23374;52.758;6.872;2023-11-18T00:03:43;29.93;;;8.10;;
37529;SDS011;23374;52.758;6.872;2023-11-18T00:06:05;48.07;;;9.83;;
37529;SDS011;23374;52.758;6.872;2023-11-18T00:08:28;25.80;;;8.00;;
37529;SDS011;23374;52.758;6.872;2023-11-18T00:10:48;38.80;;;9.30;;
37529;SDS011;23374;52.758;6.872;2023-11-18T00:13:09;34.47;;;8.83;;
37529;SDS011;23374;52.758;6.872;2023-11-18T00:15:30;81.07;;;10.27;;
37529;SDS011;23374;52.758;6.872;2023-11-18T00:17:51;50.63;;;9.53;;
37529;SDS011;23374;52.758;6.872;2023-11-18T00:20:12;65.50;;;10.47;;
37529;SDS011;23374;52.758;6.872;2023-11-18T00:22:33;41.47;;;10.17;;
37529;SDS011;23374;52.758;6.872;2023-11-18T00:24:53;25.43;;;9.07;;
37529;SDS011;23374;52.758;6.872;2023-11-18T00:27:15;29.63;;;8.30;;
37529;SDS011;23374;52.758;6.872;2023-11-18T00:29:35;33.30;;;9.23;;
37529;SDS011;23374;52.758;6.872;2023-11-18T00:31:57;35.57;;;9.20;;
37529;SDS011;23374;52.758;6.872;2023-11-18T00:34:17;34.67;;;9.53;;
37529;SDS011;23374;52.758;6.872;2023-11-18T00:36:38;52.80;;;10.70;;
37529;SDS011;23374;52.758;6.872;2023-11-18T00:38:58;32.10;;;8.63;;
37529;SDS011;23374;52.758;6.872;2023-11-18T00:41:19;16.77;;;9.37;;
37529;SDS011;23374;52.758;6.872;2023-11-18T00:43:40;22.67;;;9.93;;
37529;SDS011;23374;52.758;6.872;2023-11-18T00:46:00;44.83;;;9.57;;
37529;SDS011;23374;52.758;6.872;2023-11-18T00:48:21;25.80;;;9.57;;
37529;SDS011;23374;52.758;6.872;2023-11-18T00:52:05;29.63;;;8.80;;
37529;SDS011;23374;52.758;6.872;2023-11-18T00:54:25;37.37;;;9.70;;
37529;SDS011;23374;52.758;6.872;2023-11-18T00:56:46;18.63;;;9.20;;
37529;SDS011;23374;52.758;6.872;2023-11-18T00:59:06;59.63;;;10.20;;
37529;SDS011;23374;52.758;6.872;2023-11-18T01:01:27;31.07;;;9.50;;
37529;SDS011;23374;52.758;6.872;2023-11-18T01:03:48;28.23;;;8.50;;
37529;SDS011;23374;52.758;6.872;2023-11-18T01:06:08;27.73;;;8.80;;
37529;SDS011;23374;52.758;6.872;2023-11-18T01:08:29;22.53;;;8.27;;
37529;SDS011;23374;52.758;6.872;2023-11-18T01:10:49;21.90;;;8.27;;
37529;SDS011;23374;52.758;6.872;2023-11-18T01:13:09;24.03;;;8.60;;
37529;SDS011;23374;52.758;6.872;2023-11-18T01:15:30;14.77;;;8.70;;
37529;SDS011;23374;52.758;6.872;2023-11-18T01:17:51;24.93;;;8.43;;
37529;SDS011;23374;52.758;6.872;2023-11-18T01:20:11;43.60;;;9.37;;
37529;SDS011;23374;52.758;6.872;2023-11-18T01:22:33;26.40;;;8.30;;
37529;SDS011;23374;52.758;6.872;2023-11-18T01:24:54;21.10;;;9.33;;
37529;SDS011;23374;52.758;6.872;2023-11-18T01:27:14;23.40;;;9.17;;
37529;SDS011;23374;52.758;6.872;2023-11-18T01:29:35;21.37;;;8.67;;
37529;SDS011;23374;52.758;6.872;2023-11-18T01:31:55;17.10;;;8.13;;
37529;SDS011;23374;52.758;6.872;2023-11-18T01:34:16;15.70;;;8.00;;
37529;SDS011;23374;52.758;6.872;2023-11-18T01:36:37;16.60;;;8.83;;
37529;SDS011;23374;52.758;6.872;2023-11-18T01:38:57;13.10;;;8.50;;
37529;SDS011;23374;52.758;6.872;2023-11-18T01:41:17;16.40;;;9.07;;
37529;SDS011;23374;52.758;6.872;2023-11-18T01:43:39;15.53;;;8.43;;
37529;SDS011;23374;52.758;6.872;2023-11-18T01:46:00;20.97;;;9.53;;
37529;SDS011;23374;52.758;6.872;2023-11-18T01:48:22;18.50;;;9.17;;
37529;SDS011;23374;52.758;6.872;2023-11-18T01:52:13;19.13;;;9.37;;
37529;SDS011;23374;52.758;6.872;2023-11-18T01:54:36;17.53;;;9.37;;
37529;SDS011;23374;52.758;6.872;2023-11-18T01:56:57;17.53;;;9.47;;
37529;SDS011;23374;52.758;6.872;2023-11-18T01:59:20;18.27;;;9.80;;
37529;SDS011;23374;52.758;6.872;2023-11-18T02:01:40;19.47;;;9.33;;
37529;SDS011;23374;52.758;6.872;2023-11-18T02:03:56;16.00;;;8.87;;
37529;SDS011;23374;52.758;6.872;2023-11-18T02:06:16;17.80;;;9.30;;
37529;SDS011;23374;52.758;6.872;2023-11-18T02:08:37;21.57;;;9.60;;
37529;SDS011;23374;52.758;6.872;2023-11-18T02:11:01;23.33;;;10.13;;
37529;SDS011;23374;52.758;6.872;2023-11-18T02:13:35;21.20;;;11.27;;
37529;SDS011;23374;52.758;6.872;2023-11-18T02:15:58;20.07;;;9.37;;
37529;SDS011;23374;52.758;6.872;2023-11-18T02:18:20;21.23;;;10.30;;
37529;SDS011;23374;52.758;6.872;2023-11-18T02:20:42;23.37;;;11.77;;
37529;SDS011;23374;52.758;6.872;2023-11-18T02:23:09;22.30;;;10.80;;
37529;SDS011;23374;52.758;6.872;2023-11-18T02:25:45;23.10;;;11.40;;
37529;SDS011;23374;52.758;6.872;2023-11-18T02:28:07;41.27;;;12.53;;
37529;SDS011;23374;52.758;6.872;2023-11-18T02:30:29;47.27;;;12.83;;
37529;SDS011;23374;52.758;6.872;2023-11-18T02:33:01;28.40;;;13.33;;
37529;SDS011;23374;52.758;6.872;2023-11-18T02:35:41;26.20;;;12.10;;
37529;SDS011;23374;52.758;6.872;2023-11-18T02:38:08;29.00;;;12.40;;
37529;SDS011;23374;52.758;6.872;2023-11-18T02:40:35;26.40;;;12.90;;
37529;SDS011;23374;52.758;6.872;2023-11-18T02:43:01;26.27;;;13.17;;
37529;SDS011;23374;52.758;6.872;2023-11-18T02:45:25;30.70;;;12.83;;
37529;SDS011;23374;52.758;6.872;2023-11-18T02:47:47;28.60;;;12.40;;
37529;SDS011;23374;52.758;6.872;2023-11-18T02:52:16;33.43;;;13.50;;
37529;SDS011;23374;52.758;6.872;2023-11-18T02:54:36;26.07;;;12.10;;
37529;SDS011;23374;52.758;6.872;2023-11-18T02:56:57;32.03;;;13.63;;
37529;SDS011;23374;52.758;6.872;2023-11-18T02:59:18;36.03;;;14.97;;
37529;SDS011;23374;52.758;6.872;2023-11-18T03:01:38;29.67;;;13.77;;
37529;SDS011;23374;52.758;6.872;2023-11-18T03:04:02;31.43;;;12.50;;
37529;SDS011;23374;52.758;6.872;2023-11-18T03:06:24;30.50;;;13.20;;
37529;SDS011;23374;52.758;6.872;2023-11-18T03:08:45;43.67;;;13.73;;
37529;SDS011;23374;52.758;6.872;2023-11-18T03:11:06;35.83;;;13.97;;
37529;SDS011;23374;52.758;6.872;2023-11-18T03:13:28;39.33;;;12.80;;
37529;SDS011;23374;52.758;6.872;2023-11-18T03:15:50;37.23;;;13.57;;
37529;SDS011;23374;52.758;6.872;2023-11-18T03:18:11;27.50;;;12.33;;
37529;SDS011;23374;52.758;6.872;2023-11-18T03:20:33;63.30;;;14.00;;
37529;SDS011;23374;52.758;6.872;2023-11-18T03:22:53;55.27;;;12.73;;
37529;SDS011;23374;52.758;6.872;2023-11-18T03:25:14;82.53;;;12.90;;
37529;SDS011;23374;52.758;6.872;2023-11-18T03:27:35;41.70;;;12.23;;
37529;SDS011;23374;52.758;6.872;2023-11-18T03:29:56;47.33;;;12.33;;
37529;SDS011;23374;52.758;6.872;2023-11-18T03:32:16;48.30;;;13.33;;
37529;SDS011;23374;52.758;6.872;2023-11-18T03:34:37;89.13;;;13.83;;
37529;SDS011;23374;52.758;6.872;2023-11-18T03:36:57;47.73;;;12.27;;
37529;SDS011;23374;52.758;6.872;2023-11-18T03:39:18;78.10;;;12.50;;
37529;SDS011;23374;52.758;6.872;2023-11-18T03:41:39;78.33;;;12.27;;
37529;SDS011;23374;52.758;6.872;2023-11-18T03:44:00;52.20;;;12.37;;
37529;SDS011;23374;52.758;6.872;2023-11-18T03:46:20;52.77;;;12.30;;
37529;SDS011;23374;52.758;6.872;2023-11-18T03:48:40;81.50;;;13.17;;
37529;SDS011;23374;52.758;6.872;2023-11-18T03:52:19;37.77;;;12.70;;
37529;SDS011;23374;52.758;6.872;2023-11-18T03:54:40;30.83;;;12.23;;
37529;SDS011;23374;52.758;6.872;2023-11-18T03:57:01;26.80;;;12.80;;
37529;SDS011;23374;52.758;6.872;2023-11-18T03:59:22;25.67;;;11.57;;
37529;SDS011;23374;52.758;6.872;2023-11-18T04:01:43;25.47;;;11.07;;
37529;SDS011;23374;52.758;6.872;2023-11-18T04:04:03;23.33;;;12.00;;
37529;SDS011;23374;52.758;6.872;2023-11-18T04:06:24;25.60;;;11.93;;
37529;SDS011;23374;52.758;6.872;2023-11-18T04:08:45;25.53;;;12.33;;
37529;SDS011;23374;52.758;6.872;2023-11-18T04:11:06;24.77;;;11.87;;
37529;SDS011;23374;52.758;6.872;2023-11-18T04:13:26;24.17;;;12.07;;
37529;SDS011;23374;52.758;6.872;2023-11-18T04:15:47;27.30;;;12.43;;
37529;SDS011;23374;52.758;6.872;2023-11-18T04:18:07;30.13;;;13.03;;
37529;SDS011;23374;52.758;6.872;2023-11-18T04:20:28;26.87;;;11.37;;
37529;SDS011;23374;52.758;6.872;2023-11-18T04:22:48;26.93;;;12.73;;
37529;SDS011;23374;52.758;6.872;2023-11-18T04:25:10;25.00;;;11.63;;
37529;SDS011;23374;52.758;6.872;2023-11-18T04:27:31;25.50;;;11.20;;
37529;SDS011;23374;52.758;6.872;2023-11-18T04:29:52;32.10;;;12.00;;
37529;SDS011;23374;52.758;6.872;2023-11-18T04:32:12;25.67;;;11.70;;
37529;SDS011;23374;52.758;6.872;2023-11-18T04:34:36;23.40;;;10.57;;
37529;SDS011;23374;52.758;6.872;2023-11-18T04:36:57;24.20;;;10.33;;
37529;SDS011;23374;52.758;6.872;2023-11-18T04:39:17;26.23;;;11.33;;
37529;SDS011;23374;52.758;6.872;2023-11-18T04:41:38;26.30;;;11.97;;
37529;SDS011;23374;52.758;6.872;2023-11-18T04:43:58;21.70;;;9.80;;
37529;SDS011;23374;52.758;6.872;2023-11-18T04:46:19;23.67;;;10.93;;
37529;SDS011;23374;52.758;6.872;2023-11-18T04:48:39;23.73;;;11.30;;
37529;SDS011;23374;52.758;6.872;2023-11-18T04:52:24;29.03;;;11.40;;
37529;SDS011;23374;52.758;6.872;2023-11-18T04:54:45;34.37;;;11.87;;
37529;SDS011;23374;52.758;6.872;2023-11-18T04:57:07;27.47;;;11.73;;
37529;SDS011;23374;52.758;6.872;2023-11-18T04:59:28;25.87;;;11.63;;
37529;SDS011;23374;52.758;6.872;2023-11-18T05:01:50;26.43;;;11.77;;
37529;SDS011;23374;52.758;6.872;2023-11-18T05:04:13;22.47;;;10.53;;
37529;SDS011;23374;52.758;6.872;2023-11-18T05:06:33;28.40;;;11.73;;
37529;SDS011;23374;52.758;6.872;2023-11-18T05:08:53;31.07;;;12.10;;
37529;SDS011;23374;52.758;6.872;2023-11-18T05:11:14;24.33;;;10.87;;
37529;SDS011;23374;52.758;6.872;2023-11-18T05:13:35;18.50;;;10.20;;
37529;SDS011;23374;52.758;6.872;2023-11-18T05:15:55;27.23;;;11.83;;
37529;SDS011;23374;52.758;6.872;2023-11-18T05:18:16;25.23;;;10.40;;
37529;SDS011;23374;52.758;6.872;2023-11-18T05:20:36;24.70;;;12.00;;
37529;SDS011;23374;52.758;6.872;2023-11-18T05:22:56;24.83;;;11.23;;
37529;SDS011;23374;52.758;6.872;2023-11-18T05:25:16;26.53;;;12.67;;
37529;SDS011;23374;52.758;6.872;2023-11-18T05:27:37;28.63;;;11.60;;
37529;SDS011;23374;52.758;6.872;2023-11-18T05:30:01;29.27;;;11.07;;
37529;SDS011;23374;52.758;6.872;2023-11-18T05:32:22;26.37;;;11.90;;
37529;SDS011;23374;52.758;6.872;2023-11-18T05:34:42;27.20;;;11.93;;
37529;SDS011;23374;52.758;6.872;2023-11-18T05:37:03;22.87;;;10.83;;
37529;SDS011;23374;52.758;6.872;2023-11-18T05:39:23;27.90;;;11.50;;
37529;SDS011;23374;52.758;6.872;2023-11-18T05:41:44;30.43;;;12.27;;
37529;SDS011;23374;52.758;6.872;2023-11-18T05:44:06;29.50;;;12.87;;
37529;SDS011;23374;52.758;6.872;2023-11-18T05:46:29;28.23;;;11.30;;
37529;SDS011;23374;52.758;6.872;2023-11-18T05:48:49;29.00;;;11.40;;
37529;SDS011;23374;52.758;6.872;2023-11-18T05:52:29;25.87;;;12.63;;
37529;SDS011;23374;52.758;6.872;2023-11-18T05:54:50;24.77;;;11.27;;
37529;SDS011;23374;52.758;6.872;2023-11-18T05:57:10;31.53;;;11.50;;
37529;SDS011;23374;52.758;6.872;2023-11-18T05:59:31;22.23;;;10.60;;
37529;SDS011;23374;52.758;6.872;2023-11-18T06:01:51;35.67;;;13.03;;
37529;SDS011;23374;52.758;6.872;2023-11-18T06:04:11;29.13;;;11.77;;
37529;SDS011;23374;52.758;6.872;2023-11-18T06:06:32;29.73;;;12.97;;
37529;SDS011;23374;52.758;6.872;2023-11-18T06:08:52;28.83;;;13.17;;
37529;SDS011;23374;52.758;6.872;2023-11-18T06:11:14;27.87;;;12.50;;
37529;SDS011;23374;52.758;6.872;2023-11-18T06:13:35;26.57;;;11.90;;
37529;SDS011;23374;52.758;6.872;2023-11-18T06:15:56;26.83;;;11.90;;
37529;SDS011;23374;52.758;6.872;2023-11-18T06:18:18;29.00;;;11.77;;
37529;SDS011;23374;52.758;6.872;2023-11-18T06:20:40;30.63;;;11.57;;
37529;SDS011;23374;52.758;6.872;2023-11-18T06:23:01;25.90;;;11.67;;
37529;SDS011;23374;52.758;6.872;2023-11-18T06:25:21;25.87;;;11.40;;
37529;SDS011;23374;52.758;6.872;2023-11-18T06:27:45;31.30;;;12.00;;
37529;SDS011;23374;52.758;6.872;2023-11-18T06:30:08;26.93;;;11.60;;
37529;SDS011;23374;52.758;6.872;2023-11-18T06:32:31;23.53;;;11.17;;
37529;SDS011;23374;52.758;6.872;2023-11-18T06:34:52;25.43;;;11.90;;
37529;SDS011;23374;52.758;6.872;2023-11-18T06:37:13;31.57;;;11.80;;
37529;SDS011;23374;52.758;6.872;2023-11-18T06:39:33;25.10;;;11.47;;
37529;SDS011;23374;52.758;6.872;2023-11-18T06:41:59;27.27;;;10.87;;
37529;SDS011;23374;52.758;6.872;2023-11-18T06:44:26;32.77;;;10.70;;
37529;SDS011;23374;52.758;6.872;2023-11-18T06:46:47;27.03;;;11.60;;
37529;SDS011;23374;52.758;6.872;2023-11-18T06:49:08;31.17;;;12.47;;
37529;SDS011;23374;52.758;6.872;2023-11-18T06:52:37;29.00;;;13.20;;
37529;SDS011;23374;52.758;6.872;2023-11-18T06:54:58;29.60;;;12.93;;
37529;SDS011;23374;52.758;6.872;2023-11-18T06:57:18;30.63;;;12.73;;
37529;SDS011;23374;52.758;6.872;2023-11-18T06:59:38;33.27;;;12.27;;
37529;SDS011;23374;52.758;6.872;2023-11-18T07:01:58;31.93;;;13.30;;
37529;SDS011;23374;52.758;6.872;2023-11-18T07:04:19;29.87;;;12.60;;
37529;SDS011;23374;52.758;6.872;2023-11-18T07:06:39;30.53;;;12.60;;
37529;SDS011;23374;52.758;6.872;2023-11-18T07:09:00;36.40;;;13.27;;
37529;SDS011;23374;52.758;6.872;2023-11-18T07:11:21;13.40;;;4.47;;
37529;SDS011;23374;52.758;6.872;2023-11-18T07:13:41;22.50;;;10.83;;
37529;SDS011;23374;52.758;6.872;2023-11-18T07:16:02;37.97;;;14.07;;
37529;SDS011;23374;52.758;6.872;2023-11-18T07:18:25;32.83;;;13.53;;
37529;SDS011;23374;52.758;6.872;2023-11-18T07:20:45;30.30;;;10.03;;
37529;SDS011;23374;52.758;6.872;2023-11-18T07:23:06;39.03;;;13.30;;
37529;SDS011;23374;52.758;6.872;2023-11-18T07:25:28;35.20;;;13.43;;
37529;SDS011;23374;52.758;6.872;2023-11-18T07:27:48;31.63;;;13.80;;
37529;SDS011;23374;52.758;6.872;2023-11-18T07:30:10;31.10;;;12.23;;
37529;SDS011;23374;52.758;6.872;2023-11-18T07:32:30;31.17;;;12.60;;
37529;SDS011;23374;52.758;6.872;2023-11-18T07:34:51;36.93;;;14.20;;
37529;SDS011;23374;52.758;6.872;2023-11-18T07:37:11;40.77;;;14.50;;
37529;SDS011;23374;52.758;6.872;2023-11-18T07:39:32;37.87;;;14.60;;
37529;SDS011;23374;52.758;6.872;2023-11-18T07:42:05;36.83;;;14.57;;
37529;SDS011;23374;52.758;6.872;2023-11-18T07:44:27;45.93;;;14.73;;
37529;SDS011;23374;52.758;6.872;2023-11-18T07:46:48;35.90;;;14.33;;
37529;SDS011;23374;52.758;6.872;2023-11-18T07:49:09;33.13;;;14.70;;
37529;SDS011;23374;52.758;6.872;2023-11-18T07:51:30;29.40;;;13.40;;
37529;SDS011;23374;52.758;6.872;2023-11-18T07:53:55;34.07;;;13.23;;
37529;SDS011;23374;52.758;6.872;2023-11-18T07:56:16;29.13;;;13.00;;
37529;SDS011;23374;52.758;6.872;2023-11-18T07:58:36;38.80;;;13.73;;
37529;SDS011;23374;52.758;6.872;2023-11-18T08:00:57;33.13;;;13.80;;
37529;SDS011;23374;52.758;6.872;2023-11-18T08:03:19;35.77;;;14.17;;
37529;SDS011;23374;52.758;6.872;2023-11-18T08:05:44;32.33;;;14.00;;
37529;SDS011;23374;52.758;6.872;2023-11-18T08:08:08;33.77;;;14.47;;
37529;SDS011;23374;52.758;6.872;2023-11-18T08:10:30;33.50;;;13.53;;
37529;SDS011;23374;52.758;6.872;2023-11-18T08:12:52;34.43;;;13.70;;
37529;SDS011;23374;52.758;6.872;2023-11-18T08:15:14;31.50;;;12.43;;
37529;SDS011;23374;52.758;6.872;2023-11-18T08:17:35;34.70;;;14.03;;
37529;SDS011;23374;52.758;6.872;2023-11-18T08:19:55;28.83;;;12.90;;
37529;SDS011;23374;52.758;6.872;2023-11-18T08:22:16;32.43;;;13.17;;
37529;SDS011;23374;52.758;6.872;2023-11-18T08:24:38;31.47;;;13.70;;
37529;SDS011;23374;52.758;6.872;2023-11-18T08:26:59;29.10;;;12.67;;
37529;SDS011;23374;52.758;6.872;2023-11-18T08:29:20;26.37;;;11.73;;
37529;SDS011;23374;52.758;6.872;2023-11-18T08:31:41;34.40;;;14.30;;
37529;SDS011;23374;52.758;6.872;2023-11-18T08:34:01;30.63;;;13.27;;
37529;SDS011;23374;52.758;6.872;2023-11-18T08:36:22;31.40;;;13.23;;
37529;SDS011;23374;52.758;6.872;2023-11-18T08:38:46;31.47;;;13.40;;
37529;SDS011;23374;52.758;6.872;2023-11-18T08:41:06;31.37;;;13.40;;
37529;SDS011;23374;52.758;6.872;2023-11-18T08:43:29;33.40;;;12.83;;
37529;SDS011;23374;52.758;6.872;2023-11-18T08:45:50;30.57;;;12.83;;
37529;SDS011;23374;52.758;6.872;2023-11-18T08:48:10;33.00;;;13.63;;
37529;SDS011;23374;52.758;6.872;2023-11-18T08:50:30;30.07;;;13.00;;
37529;SDS011;23374;52.758;6.872;2023-11-18T08:52:54;31.80;;;12.87;;
37529;SDS011;23374;52.758;6.872;2023-11-18T08:55:18;26.70;;;11.50;;
37529;SDS011;23374;52.758;6.872;2023-11-18T08:57:40;24.53;;;11.30;;
37529;SDS011;23374;52.758;6.872;2023-11-18T09:00:19;29.80;;;13.17;;
37529;SDS011;23374;52.758;6.872;2023-11-18T09:02:58;25.53;;;11.53;;
37529;SDS011;23374;52.758;6.872;2023-11-18T09:05:21;30.83;;;13.77;;
37529;SDS011;23374;52.758;6.872;2023-11-18T09:07:42;28.50;;;12.17;;
37529;SDS011;23374;52.758;6.872;2023-11-18T09:10:08;28.20;;;12.87;;
37529;SDS011;23374;52.758;6.872;2023-11-18T09:12:28;29.30;;;12.87;;
37529;SDS011;23374;52.758;6.872;2023-11-18T09:14:49;26.77;;;12.63;;
37529;SDS011;23374;52.758;6.872;2023-11-18T09:17:11;33.90;;;14.10;;
37529;SDS011;23374;52.758;6.872;2023-11-18T09:19:32;27.00;;;12.77;;
37529;SDS011;23374;52.758;6.872;2023-11-18T09:21:52;26.83;;;12.93;;
37529;SDS011;23374;52.758;6.872;2023-11-18T09:24:14;27.00;;;11.93;;
37529;SDS011;23374;52.758;6.872;2023-11-18T09:26:40;25.53;;;11.90;;
37529;SDS011;23374;52.758;6.872;2023-11-18T09:29:03;31.73;;;12.77;;
37529;SDS011;23374;52.758;6.872;2023-11-18T09:31:24;24.57;;;11.13;;
37529;SDS011;23374;52.758;6.872;2023-11-18T09:33:44;31.80;;;13.00;;
37529;SDS011;23374;52.758;6.872;2023-11-18T09:36:11;32.07;;;12.77;;
37529;SDS011;23374;52.758;6.872;2023-11-18T09:38:32;22.77;;;10.63;;
37529;SDS011;23374;52.758;6.872;2023-11-18T09:40:56;24.00;;;12.00;;
37529;SDS011;23374;52.758;6.872;2023-11-18T09:43:17;33.57;;;12.90;;
37529;SDS011;23374;52.758;6.872;2023-11-18T09:45:39;34.70;;;14.30;;
37529;SDS011;23374;52.758;6.872;2023-11-18T09:48:00;28.73;;;12.30;;
37529;SDS011;23374;52.758;6.872;2023-11-18T09:50:22;25.13;;;10.97;;
37529;SDS011;23374;52.758;6.872;2023-11-18T09:52:48;29.00;;;11.83;;
37529;SDS011;23374;52.758;6.872;2023-11-18T09:55:15;29.37;;;12.23;;
37529;SDS011;23374;52.758;6.872;2023-11-18T09:57:55;31.13;;;12.33;;
37529;SDS011;23374;52.758;6.872;2023-11-18T10:00:23;17.87;;;9.67;;
37529;SDS011;23374;52.758;6.872;2023-11-18T10:02:49;22.27;;;11.87;;
37529;SDS011;23374;52.758;6.872;2023-11-18T10:05:10;26.80;;;12.13;;
37529;SDS011;23374;52.758;6.872;2023-11-18T10:07:33;25.37;;;11.00;;
37529;SDS011;23374;52.758;6.872;2023-11-18T10:09:57;24.60;;;11.27;;
37529;SDS011;23374;52.758;6.872;2023-11-18T10:12:17;27.43;;;12.23;;
37529;SDS011;23374;52.758;6.872;2023-11-18T10:14:43;25.90;;;10.70;;
37529;SDS011;23374;52.758;6.872;2023-11-18T10:17:06;22.07;;;10.33;;
37529;SDS011;23374;52.758;6.872;2023-11-18T10:19:49;27.63;;;12.13;;
37529;SDS011;23374;52.758;6.872;2023-11-18T10:22:22;25.73;;;11.43;;
37529;SDS011;23374;52.758;6.872;2023-11-18T10:24:44;29.97;;;11.87;;
37529;SDS011;23374;52.758;6.872;2023-11-18T10:27:05;26.83;;;11.83;;
37529;SDS011;23374;52.758;6.872;2023-11-18T10:29:28;25.67;;;11.27;;
37529;SDS011;23374;52.758;6.872;2023-11-18T10:31:50;23.13;;;10.63;;
37529;SDS011;23374;52.758;6.872;2023-11-18T10:34:21;24.53;;;11.93;;
37529;SDS011;23374;52.758;6.872;2023-11-18T10:36:58;27.13;;;11.70;;
37529;SDS011;23374;52.758;6.872;2023-11-18T10:39:22;23.10;;;11.73;;
37529;SDS011;23374;52.758;6.872;2023-11-18T10:41:47;20.97;;;10.37;;
37529;SDS011;23374;52.758;6.872;2023-11-18T10:44:09;23.30;;;10.87;;
37529;SDS011;23374;52.758;6.872;2023-11-18T10:46:33;22.43;;;10.47;;
37529;SDS011;23374;52.758;6.872;2023-11-18T10:48:55;16.43;;;7.93;;
37529;SDS011;23374;52.758;6.872;2023-11-18T10:51:18;24.77;;;11.37;;
37529;SDS011;23374;52.758;6.872;2023-11-18T10:53:40;20.43;;;9.60;;
37529;SDS011;23374;52.758;6.872;2023-11-18T10:56:20;23.70;;;10.80;;
37529;SDS011;23374;52.758;6.872;2023-11-18T10:58:46;20.30;;;10.47;;
37529;SDS011;23374;52.758;6.872;2023-11-18T11:01:08;22.27;;;11.37;;
37529;SDS011;23374;52.758;6.872;2023-11-18T11:03:31;22.00;;;10.03;;
37529;SDS011;23374;52.758;6.872;2023-11-18T11:05:55;23.17;;;11.03;;
37529;SDS011;23374;52.758;6.872;2023-11-18T11:08:16;20.87;;;10.30;;
37529;SDS011;23374;52.758;6.872;2023-11-18T11:10:42;20.27;;;9.80;;
37529;SDS011;23374;52.758;6.872;2023-11-18T11:13:02;29.90;;;11.90;;
37529;SDS011;23374;52.758;6.872;2023-11-18T11:15:31;23.77;;;11.17;;
37529;SDS011;23374;52.758;6.872;2023-11-18T11:17:52;20.93;;;10.40;;
37529;SDS011;23374;52.758;6.872;2023-11-18T11:20:22;21.13;;;9.33;;
37529;SDS011;23374;52.758;6.872;2023-11-18T11:23:46;20.33;;;10.37;;
37529;SDS011;23374;52.758;6.872;2023-11-18T11:27:04;20.73;;;10.43;;
37529;SDS011;23374;52.758;6.872;2023-11-18T11:29:57;17.67;;;7.63;;
37529;SDS011;23374;52.758;6.872;2023-11-18T11:32:35;21.70;;;9.37;;
37529;SDS011;23374;52.758;6.872;2023-11-18T11:35:32;22.60;;;9.23;;
37529;SDS011;23374;52.758;6.872;2023-11-18T11:37:57;18.63;;;9.33;;
37529;SDS011;23374;52.758;6.872;2023-11-18T11:40:32;21.23;;;9.83;;
37529;SDS011;23374;52.758;6.872;2023-11-18T11:42:56;20.60;;;9.70;;
37529;SDS011;23374;52.758;6.872;2023-11-18T11:45:17;18.83;;;9.87;;
37529;SDS011;23374;52.758;6.872;2023-11-18T11:47:41;18.33;;;9.37;;
37529;SDS011;23374;52.758;6.872;2023-11-18T11:50:27;19.07;;;9.87;;
37529;SDS011;23374;52.758;6.872;2023-11-18T11:52:55;18.97;;;8.47;;
37529;SDS011;23374;52.758;6.872;2023-11-18T11:55:23;16.07;;;7.90;;
37529;SDS011;23374;52.758;6.872;2023-11-18T11:57:56;19.23;;;8.47;;
37529;SDS011;23374;52.758;6.872;2023-11-18T12:00:20;14.73;;;7.83;;
37529;SDS011;23374;52.758;6.872;2023-11-18T12:02:49;17.73;;;8.97;;
37529;SDS011;23374;52.758;6.872;2023-11-18T12:05:17;19.47;;;9.80;;
37529;SDS011;23374;52.758;6.872;2023-11-18T12:07:46;18.27;;;9.43;;
37529;SDS011;23374;52.758;6.872;2023-11-18T12:10:08;14.57;;;8.77;;
37529;SDS011;23374;52.758;6.872;2023-11-18T12:12:34;17.03;;;9.03;;
37529;SDS011;23374;52.758;6.872;2023-11-18T12:14:58;17.47;;;8.77;;
37529;SDS011;23374;52.758;6.872;2023-11-18T12:21:09;15.83;;;8.07;;
37529;SDS011;23374;52.758;6.872;2023-11-18T12:24:15;14.37;;;8.03;;
37529;SDS011;23374;52.758;6.872;2023-11-18T12:26:42;13.17;;;7.93;;
37529;SDS011;23374;52.758;6.872;2023-11-18T12:29:03;17.33;;;9.10;;
37529;SDS011;23374;52.758;6.872;2023-11-18T12:31:40;17.93;;;8.93;;
37529;SDS011;23374;52.758;6.872;2023-11-18T12:34:02;17.13;;;7.60;;
37529;SDS011;23374;52.758;6.872;2023-11-18T12:36:56;12.87;;;7.43;;
37529;SDS011;23374;52.758;6.872;2023-11-18T12:44:42;20.13;;;8.43;;
37529;SDS011;23374;52.758;6.872;2023-11-18T12:47:26;12.40;;;6.67;;
37529;SDS011;23374;52.758;6.872;2023-11-18T12:49:51;13.70;;;6.27;;
37529;SDS011;23374;52.758;6.872;2023-11-18T12:52:14;9.30;;;5.00;;
37529;SDS011;23374;52.758;6.872;2023-11-18T12:54:38;13.73;;;6.70;;
37529;SDS011;23374;52.758;6.872;2023-11-18T12:57:03;16.30;;;7.53;;
37529;SDS011;23374;52.758;6.872;2023-11-18T12:59:27;14.83;;;7.00;;
37529;SDS011;23374;52.758;6.872;2023-11-18T13:01:50;13.77;;;7.00;;
37529;SDS011;23374;52.758;6.872;2023-11-18T13:04:17;12.23;;;6.67;;
37529;SDS011;23374;52.758;6.872;2023-11-18T13:06:39;15.07;;;6.87;;
37529;SDS011;23374;52.758;6.872;2023-11-18T13:09:03;12.20;;;6.60;;
37529;SDS011;23374;52.758;6.872;2023-11-18T13:11:29;13.90;;;6.67;;
37529;SDS011;23374;52.758;6.872;2023-11-18T13:13:53;14.13;;;7.17;;
37529;SDS011;23374;52.758;6.872;2023-11-18T13:16:13;15.33;;;7.20;;
37529;SDS011;23374;52.758;6.872;2023-11-18T13:18:45;17.27;;;8.00;;
37529;SDS011;23374;52.758;6.872;2023-11-18T13:21:13;15.30;;;7.43;;
37529;SDS011;23374;52.758;6.872;2023-11-18T13:23:35;12.73;;;6.57;;
37529;SDS011;23374;52.758;6.872;2023-11-18T13:25:57;13.10;;;7.47;;
37529;SDS011;23374;52.758;6.872;2023-11-18T13:28:22;12.33;;;6.40;;
37529;SDS011;23374;52.758;6.872;2023-11-18T13:30:43;14.77;;;7.40;;
37529;SDS011;23374;52.758;6.872;2023-11-18T13:33:06;14.67;;;8.07;;
37529;SDS011;23374;52.758;6.872;2023-11-18T13:35:28;12.93;;;7.37;;
37529;SDS011;23374;52.758;6.872;2023-11-18T13:37:49;15.60;;;6.57;;
37529;SDS011;23374;52.758;6.872;2023-11-18T13:40:10;5.87;;;3.73;;
37529;SDS011;23374;52.758;6.872;2023-11-18T13:42:32;20.20;;;7.20;;
37529;SDS011;23374;52.758;6.872;2023-11-18T13:45:08;14.60;;;8.50;;
37529;SDS011;23374;52.758;6.872;2023-11-18T13:47:35;15.20;;;7.53;;
37529;SDS011;23374;52.758;6.872;2023-11-18T13:49:56;10.77;;;6.40;;
37529;SDS011;23374;52.758;6.872;2023-11-18T13:52:18;14.50;;;7.83;;
37529;SDS011;23374;52.758;6.872;2023-11-18T13:54:38;9.67;;;5.03;;
37529;SDS011;23374;52.758;6.872;2023-11-18T13:57:00;13.87;;;7.13;;
37529;SDS011;23374;52.758;6.872;2023-11-18T13:59:26;14.53;;;7.10;;
37529;SDS011;23374;52.758;6.872;2023-11-18T14:01:47;13.13;;;7.53;;
37529;SDS011;23374;52.758;6.872;2023-11-18T14:04:09;12.67;;;6.43;;
37529;SDS011;23374;52.758;6.872;2023-11-18T14:06:31;12.00;;;5.43;;
37529;SDS011;23374;52.758;6.872;2023-11-18T14:08:51;15.37;;;7.00;;
37529;SDS011;23374;52.758;6.872;2023-11-18T14:11:12;10.83;;;6.63;;
37529;SDS011;23374;52.758;6.872;2023-11-18T14:13:32;10.20;;;5.63;;
37529;SDS011;23374;52.758;6.872;2023-11-18T14:15:54;11.10;;;6.40;;
37529;SDS011;23374;52.758;6.872;2023-11-18T14:18:17;7.40;;;4.53;;
37529;SDS011;23374;52.758;6.872;2023-11-18T14:20:37;11.80;;;5.93;;
37529;SDS011;23374;52.758;6.872;2023-11-18T14:22:57;7.60;;;3.40;;